createdAt,value
2019-02-20T00:01:51.164Z,6.15
2019-02-20T00:04:16.910Z,6.08
2019-02-20T00:06:42.716Z,6.12
2019-02-20T00:09:08.424Z,6.09
2019-02-20T00:11:34.168Z,6.11
2019-02-20T00:13:59.938Z,6.11
2019-02-20T00:16:25.816Z,6.10
2019-02-20T00:18:52.374Z,6.13
2019-02-20T00:21:18.131Z,6.15
2019-02-20T00:23:43.889Z,6.12
2019-02-20T00:26:09.640Z,6.10
2019-02-20T00:28:35.429Z,6.06
2019-02-20T00:31:01.179Z,6.13
2019-02-20T00:33:26.936Z,6.09
2019-02-20T00:35:52.679Z,6.08
2019-02-20T00:38:18.443Z,6.12
2019-02-20T00:40:44.193Z,6.10
2019-02-20T00:43:09.957Z,6.11
2019-02-20T00:45:37.603Z,6.14
2019-02-20T00:48:14.091Z,6.13
2019-02-20T00:50:41.731Z,6.08
2019-02-20T00:53:15.038Z,6.20
2019-02-20T00:55:40.804Z,6.20
2019-02-20T00:58:06.558Z,6.21
2019-02-20T01:00:32.319Z,6.22
2019-02-20T01:02:58.060Z,6.18
2019-02-20T01:05:23.818Z,6.24
2019-02-20T01:07:49.560Z,6.23
2019-02-20T01:10:15.324Z,6.25
2019-02-20T01:12:41.081Z,6.25
2019-02-20T01:15:08.869Z,6.25
2019-02-20T01:17:34.598Z,6.19
2019-02-20T01:20:00.458Z,6.20
2019-02-20T01:22:26.211Z,6.24
2019-02-20T01:24:51.971Z,6.27
2019-02-20T01:27:17.724Z,6.26
2019-02-20T01:29:45.414Z,6.25
2019-02-20T01:32:11.168Z,6.26
2019-02-20T01:34:36.945Z,6.26
2019-02-20T01:37:02.787Z,6.27
2019-02-20T01:39:28.638Z,6.24
2019-02-20T01:41:54.678Z,6.26
2019-02-20T01:44:20.443Z,6.21
2019-02-20T01:46:46.202Z,6.25
2019-02-20T01:49:11.964Z,6.21
2019-02-20T01:51:37.728Z,6.23
2019-02-20T01:54:03.488Z,6.17
2019-02-20T01:56:29.249Z,6.16
2019-02-20T01:58:54.998Z,6.20
2019-02-20T02:01:20.758Z,6.20
2019-02-20T02:03:46.507Z,6.24
2019-02-20T02:06:12.270Z,6.21
2019-02-20T02:08:38.016Z,6.20
2019-02-20T02:11:03.785Z,6.24
2019-02-20T02:13:29.535Z,6.26
2019-02-20T02:15:55.296Z,6.26
2019-02-20T02:18:21.049Z,6.29
2019-02-20T02:20:46.799Z,6.22
2019-02-20T02:23:19.627Z,6.18
2019-02-20T02:25:40.207Z,6.25
2019-02-20T02:28:05.957Z,6.27
2019-02-20T02:30:31.719Z,6.19
2019-02-20T02:32:57.475Z,6.21
2019-02-20T02:35:23.229Z,6.22
2019-02-20T02:37:48.988Z,6.19
2019-02-20T02:40:14.733Z,6.18
2019-02-20T02:42:40.508Z,6.19
2019-02-20T02:45:06.265Z,6.19
2019-02-20T02:47:32.038Z,6.18
2019-02-20T02:49:57.802Z,6.20
2019-02-20T02:52:23.573Z,6.14
2019-02-20T02:54:49.331Z,6.13
2019-02-20T02:57:15.091Z,6.15
2019-02-20T02:59:40.846Z,6.10
2019-02-20T03:02:06.606Z,6.17
2019-02-20T03:04:32.359Z,6.12
2019-02-20T03:06:58.129Z,6.13
2019-02-20T03:09:23.883Z,6.12
2019-02-20T03:11:49.642Z,6.12
2019-02-20T03:14:15.390Z,6.13
2019-02-20T03:16:41.155Z,6.10
2019-02-20T03:19:06.911Z,6.12
2019-02-20T03:21:32.673Z,6.14
2019-02-20T03:23:58.423Z,6.16
2019-02-20T03:26:24.187Z,6.10
2019-02-20T03:28:49.929Z,6.11
2019-02-20T03:31:15.696Z,6.09
2019-02-20T03:33:41.433Z,6.05
2019-02-20T03:36:07.190Z,6.09
2019-02-20T03:38:32.937Z,6.09
2019-02-20T03:40:58.789Z,6.10
2019-02-20T03:43:24.549Z,6.06
2019-02-20T03:45:50.301Z,6.06
2019-02-20T03:48:16.087Z,6.06
2019-02-20T03:50:41.834Z,6.04
2019-02-20T03:53:07.733Z,5.97
2019-02-20T03:55:33.578Z,6.02
2019-02-20T03:57:59.339Z,6.02
2019-02-20T04:00:25.088Z,5.98
2019-02-20T04:02:50.850Z,5.99
2019-02-20T04:05:16.598Z,5.96
2019-02-20T04:07:42.362Z,5.98
2019-02-20T04:10:09.107Z,5.97
2019-02-20T04:12:34.975Z,5.98
2019-02-20T04:15:00.740Z,5.96
2019-02-20T04:17:26.501Z,5.93
2019-02-20T04:19:52.252Z,5.93
2019-02-20T04:22:18.018Z,5.95
2019-02-20T04:24:43.773Z,5.97
2019-02-20T04:27:09.536Z,5.93
2019-02-20T04:29:35.285Z,5.94
2019-02-20T04:32:01.057Z,5.87
2019-02-20T04:34:26.813Z,5.86
2019-02-20T04:36:52.606Z,5.80
2019-02-20T04:39:18.379Z,5.80
2019-02-20T04:41:44.138Z,5.79
2019-02-20T04:44:09.921Z,5.80
2019-02-20T04:46:35.677Z,5.73
2019-02-20T04:49:01.453Z,5.75
2019-02-20T04:51:27.204Z,5.77
2019-02-20T04:53:52.965Z,5.74
2019-02-20T04:56:18.709Z,5.76
2019-02-20T04:58:46.281Z,5.78
2019-02-20T05:01:12.029Z,5.78
2019-02-20T05:03:37.801Z,5.82
2019-02-20T05:06:03.554Z,5.84
2019-02-20T05:08:29.315Z,5.81
2019-02-20T05:10:55.075Z,5.81
2019-02-20T05:13:20.875Z,5.83
2019-02-20T05:15:46.622Z,5.81
2019-02-20T05:18:12.382Z,5.76
2019-02-20T05:20:38.155Z,5.74
2019-02-20T05:23:03.919Z,5.81
2019-02-20T05:25:29.706Z,5.77
2019-02-20T05:27:55.437Z,5.76
2019-02-20T05:30:21.206Z,5.81
2019-02-20T05:32:46.979Z,5.84
2019-02-20T05:35:12.735Z,5.76
2019-02-20T05:37:39.725Z,5.81
2019-02-20T05:40:07.264Z,5.81
2019-02-20T05:42:33.037Z,5.77
2019-02-20T05:44:58.831Z,5.80
2019-02-20T05:47:24.585Z,5.72
2019-02-20T05:49:50.363Z,5.73
2019-02-20T05:52:16.108Z,5.68
2019-02-20T05:54:41.873Z,5.70
2019-02-20T05:57:07.644Z,5.67
2019-02-20T05:59:33.404Z,5.67
2019-02-20T06:01:59.152Z,5.67
2019-02-20T06:04:24.908Z,5.63
2019-02-20T06:06:50.660Z,5.60
2019-02-20T06:09:16.416Z,5.63
2019-02-20T06:11:42.166Z,5.60
2019-02-20T06:14:07.930Z,5.64
2019-02-20T06:16:33.695Z,5.58
2019-02-20T06:18:59.485Z,5.55
2019-02-20T06:21:25.228Z,5.59
2019-02-20T06:23:51.005Z,5.57
2019-02-20T06:26:16.759Z,5.52
2019-02-20T06:28:42.537Z,5.54
2019-02-20T06:31:08.293Z,5.52
2019-02-20T06:33:34.073Z,5.47
2019-02-20T06:35:59.847Z,5.46
2019-02-20T06:38:25.614Z,5.47
2019-02-20T06:40:51.388Z,5.46
2019-02-20T06:43:17.138Z,5.48
2019-02-20T06:45:42.906Z,5.49
2019-02-20T06:48:08.661Z,5.47
2019-02-20T06:50:34.440Z,5.47
2019-02-20T06:53:00.189Z,5.44
2019-02-20T06:55:25.973Z,5.47
2019-02-20T06:57:51.722Z,5.43
2019-02-20T07:00:17.514Z,5.48
2019-02-20T07:02:43.242Z,5.44
2019-02-20T07:05:32.765Z,5.44
2019-02-20T07:08:17.237Z,5.48
2019-02-20T07:11:03.454Z,5.49
2019-02-20T07:13:33.004Z,5.49
2019-02-20T07:16:21.703Z,5.45
2019-02-20T07:19:02.923Z,5.48
2019-02-20T07:21:44.602Z,5.51
2019-02-20T07:24:23.034Z,5.56
2019-02-20T07:27:00.975Z,5.56
2019-02-20T07:29:58.050Z,5.62
2019-02-20T07:32:23.802Z,5.65
2019-02-20T07:34:49.586Z,5.73
2019-02-20T07:37:15.324Z,5.78
2019-02-20T07:39:41.087Z,5.76
2019-02-20T07:42:06.835Z,5.82
2019-02-20T07:44:32.585Z,5.85
2019-02-20T07:46:58.345Z,5.93
2019-02-20T07:49:24.107Z,5.98
2019-02-20T07:51:49.890Z,6.08
2019-02-20T07:54:15.632Z,6.11
2019-02-20T07:56:41.394Z,6.17
2019-02-20T07:59:07.145Z,6.23
2019-02-20T08:01:32.913Z,6.25
2019-02-20T08:03:58.655Z,6.24
2019-02-20T08:06:24.417Z,6.21
2019-02-20T08:08:50.168Z,6.26
2019-02-20T08:11:15.934Z,6.33
2019-02-20T08:13:41.678Z,6.32
2019-02-20T08:16:07.458Z,6.39
2019-02-20T08:18:33.212Z,6.42
2019-02-20T08:20:58.970Z,6.54
2019-02-20T08:23:24.720Z,6.57
2019-02-20T08:25:50.479Z,6.60
2019-02-20T08:28:16.231Z,6.62
2019-02-20T08:30:42.118Z,6.58
2019-02-20T08:33:07.881Z,6.63
2019-02-20T08:35:33.649Z,6.63
2019-02-20T08:37:59.537Z,6.66
2019-02-20T08:40:31.525Z,6.71
2019-02-20T08:42:57.404Z,6.75
2019-02-20T08:45:23.151Z,6.70
2019-02-20T08:47:48.916Z,6.72
2019-02-20T08:50:16.632Z,6.69
2019-02-20T08:52:42.395Z,6.71
2019-02-20T08:55:08.846Z,6.73
2019-02-20T08:57:34.660Z,6.89
2019-02-20T09:00:00.379Z,7.02
2019-02-20T09:02:26.139Z,7.16
2019-02-20T09:04:51.891Z,7.09
2019-02-20T09:07:17.655Z,7.16
2019-02-20T09:09:43.410Z,7.19
2019-02-20T09:12:09.194Z,7.20
2019-02-20T09:14:34.943Z,7.16
2019-02-20T09:17:00.714Z,7.06
2019-02-20T09:19:26.459Z,7.17
2019-02-20T09:21:52.235Z,7.06
2019-02-20T09:24:17.996Z,7.11
2019-02-20T09:26:43.806Z,7.13
2019-02-20T09:29:09.591Z,7.17
2019-02-20T09:31:35.328Z,7.11
2019-02-20T09:34:01.113Z,7.11
2019-02-20T09:36:26.862Z,7.17
2019-02-20T09:38:52.639Z,7.24
2019-02-20T09:41:18.392Z,7.18
2019-02-20T09:43:44.884Z,7.19
2019-02-20T09:46:10.639Z,7.17
2019-02-20T09:48:36.409Z,7.23
2019-02-20T09:51:02.184Z,7.18
2019-02-20T09:53:27.950Z,7.30
2019-02-20T09:55:53.739Z,7.29
2019-02-20T09:58:19.526Z,7.45
2019-02-20T10:00:45.282Z,7.52
2019-02-20T10:03:11.048Z,7.56
2019-02-20T10:05:36.805Z,7.56
2019-02-20T10:08:04.449Z,7.52
2019-02-20T10:10:30.328Z,7.52
2019-02-20T10:12:56.155Z,7.47
2019-02-20T10:15:21.932Z,7.20
2019-02-20T10:17:47.688Z,7.62
2019-02-20T10:20:13.449Z,7.70
2019-02-20T10:22:39.197Z,7.67
2019-02-20T10:25:09.999Z,7.58
2019-02-20T10:27:35.754Z,7.52
2019-02-20T10:30:01.533Z,7.47
2019-02-20T10:32:27.418Z,7.46
2019-02-20T10:34:53.448Z,7.53
2019-02-20T10:37:19.218Z,7.62
2019-02-20T10:39:44.999Z,7.62
2019-02-20T10:42:10.747Z,7.60
2019-02-20T10:44:36.561Z,7.55
2019-02-20T10:47:02.296Z,7.53
2019-02-20T10:49:28.119Z,7.59
2019-02-20T10:51:53.867Z,7.55
2019-02-20T10:54:19.624Z,7.60
2019-02-20T10:56:45.393Z,7.63
2019-02-20T10:59:11.166Z,7.64
2019-02-20T11:01:36.927Z,7.69
2019-02-20T11:04:03.704Z,7.77
2019-02-20T11:06:29.607Z,7.66
2019-02-20T11:08:55.358Z,7.50
2019-02-20T11:11:21.810Z,7.63
2019-02-20T11:13:47.769Z,7.70
2019-02-20T11:16:16.988Z,7.64
2019-02-20T11:18:42.764Z,7.62
2019-02-20T11:21:09.361Z,7.60
2019-02-20T11:23:35.883Z,7.66
2019-02-20T11:26:04.834Z,7.66
2019-02-20T11:28:30.669Z,7.67
2019-02-20T11:30:56.917Z,7.67
2019-02-20T11:33:23.297Z,7.64
2019-02-20T11:35:49.129Z,7.65
2019-02-20T11:38:14.885Z,7.67
2019-02-20T11:40:40.654Z,7.71
2019-02-20T11:43:06.427Z,7.69
2019-02-20T11:45:32.197Z,7.62
2019-02-20T11:47:57.964Z,7.58
2019-02-20T11:50:23.745Z,7.69
2019-02-20T11:52:49.489Z,7.70
2019-02-20T11:55:15.254Z,7.73
2019-02-20T11:57:41.009Z,7.77
2019-02-20T12:00:16.075Z,7.81
2019-02-20T12:02:42.303Z,7.77
2019-02-20T12:05:08.233Z,7.76
2019-02-20T12:07:33.994Z,7.75
2019-02-20T12:09:59.745Z,7.71
2019-02-20T12:12:25.523Z,7.77
2019-02-20T12:14:51.311Z,7.90
2019-02-20T12:17:17.111Z,7.87
2019-02-20T12:19:42.857Z,7.82
2019-02-20T12:22:08.658Z,7.75
2019-02-20T12:24:34.412Z,7.71
2019-02-20T12:27:00.189Z,7.76
2019-02-20T12:29:25.952Z,7.76
2019-02-20T12:31:52.711Z,7.77
2019-02-20T12:34:18.796Z,7.70
2019-02-20T12:36:44.579Z,7.66
2019-02-20T12:39:11.042Z,7.61
2019-02-20T12:41:36.833Z,7.65
2019-02-20T12:44:02.587Z,7.64
2019-02-20T12:46:28.365Z,7.59
2019-02-20T12:48:54.130Z,7.58
2019-02-20T12:51:20.015Z,7.64
2019-02-20T12:53:45.768Z,7.70
2019-02-20T12:56:11.589Z,7.78
2019-02-20T12:58:38.367Z,7.81
2019-02-20T13:01:04.279Z,7.83
2019-02-20T13:03:30.057Z,7.86
2019-02-20T13:05:55.821Z,7.90
2019-02-20T13:08:21.584Z,7.93
2019-02-20T13:10:47.370Z,8.01
2019-02-20T13:13:13.094Z,8.21
2019-02-20T13:15:38.948Z,8.30
2019-02-20T13:18:04.727Z,8.31
2019-02-20T13:20:30.481Z,8.25
2019-02-20T13:22:56.250Z,8.32
2019-02-20T13:25:21.998Z,8.35
2019-02-20T13:27:47.788Z,8.34
2019-02-20T13:30:13.635Z,8.38
2019-02-20T13:32:39.418Z,8.41
2019-02-20T13:35:05.186Z,8.52
2019-02-20T13:37:30.947Z,8.49
2019-02-20T13:39:56.716Z,8.42
2019-02-20T13:42:22.510Z,8.35
2019-02-20T13:44:48.325Z,8.29
2019-02-20T13:47:14.081Z,8.26
2019-02-20T13:49:39.848Z,8.30
2019-02-20T13:52:05.614Z,8.41
2019-02-20T13:54:31.399Z,8.40
2019-02-20T13:57:02.003Z,8.37
2019-02-20T13:59:24.934Z,8.51
2019-02-20T14:01:51.086Z,8.51
2019-02-20T14:04:16.868Z,8.51
2019-02-20T14:06:42.690Z,8.45
2019-02-20T14:09:08.485Z,8.43
2019-02-20T14:11:34.251Z,8.53
2019-02-20T14:14:00.727Z,8.53
2019-02-20T14:16:26.499Z,8.53
2019-02-20T14:18:52.282Z,8.53
2019-02-20T14:21:18.054Z,8.54
2019-02-20T14:23:44.288Z,8.44
2019-02-20T14:26:10.055Z,8.37
2019-02-20T14:28:35.854Z,8.40
2019-02-20T14:31:01.614Z,8.39
2019-02-20T14:33:27.371Z,8.33
2019-02-20T14:35:53.125Z,8.20
2019-02-20T14:38:20.847Z,8.24
2019-02-20T14:40:46.625Z,8.38
2019-02-20T14:43:12.413Z,8.38
2019-02-20T14:45:38.478Z,8.38
2019-02-20T14:48:04.235Z,8.38
2019-02-20T14:50:30.016Z,8.37
2019-02-20T14:52:55.802Z,8.28
2019-02-20T14:55:21.550Z,8.31
2019-02-20T14:57:47.293Z,8.31
2019-02-20T15:00:14.162Z,8.38
2019-02-20T15:02:40.017Z,8.31
2019-02-20T15:05:05.788Z,8.22
2019-02-20T15:07:33.829Z,8.16
2019-02-20T15:09:59.604Z,8.19
2019-02-20T15:12:25.372Z,8.18
2019-02-20T15:14:51.136Z,8.17
2019-02-20T15:17:16.886Z,8.16
2019-02-20T15:19:42.646Z,8.12
2019-02-20T15:22:08.394Z,8.18
2019-02-20T15:24:34.159Z,8.18
2019-02-20T15:26:59.900Z,8.08
2019-02-20T15:29:25.865Z,8.05
2019-02-20T15:31:51.609Z,8.16
2019-02-20T15:34:17.370Z,8.12
2019-02-20T15:36:43.121Z,8.08
2019-02-20T15:39:08.902Z,8.07
2019-02-20T15:41:34.654Z,8.09
2019-02-20T15:44:00.439Z,8.12
2019-02-20T15:46:26.186Z,8.18
2019-02-20T15:48:51.965Z,8.20
2019-02-20T15:51:18.129Z,8.16
2019-02-20T15:53:43.876Z,8.17
2019-02-20T15:56:09.636Z,8.17
2019-02-20T15:58:35.408Z,8.21
2019-02-20T16:01:01.274Z,8.27
2019-02-20T16:03:27.033Z,8.41
2019-02-20T16:05:52.785Z,8.49
2019-02-20T16:08:18.536Z,8.52
2019-02-20T16:10:44.306Z,8.37
2019-02-20T16:13:10.048Z,8.33
2019-02-20T16:15:36.136Z,8.13
2019-02-20T16:18:01.890Z,7.95
2019-02-20T16:20:27.655Z,7.86
2019-02-20T16:22:53.422Z,7.75
2019-02-20T16:25:19.199Z,7.62
2019-02-20T16:27:47.549Z,7.62
2019-02-20T16:30:13.215Z,7.52
2019-02-20T16:32:38.966Z,7.52
2019-02-20T16:35:07.761Z,7.47
2019-02-20T16:37:33.583Z,7.50
2019-02-20T16:39:59.363Z,7.50
2019-02-20T16:42:25.109Z,7.50
2019-02-20T16:44:50.880Z,7.49
2019-02-20T16:47:16.664Z,7.50
2019-02-20T16:49:42.438Z,7.48
2019-02-20T16:52:08.194Z,7.54
2019-02-20T16:54:33.952Z,7.55
2019-02-20T16:56:59.699Z,7.58
2019-02-20T16:59:25.561Z,7.49
2019-02-20T17:01:53.056Z,7.42
2019-02-20T17:04:18.880Z,7.31
2019-02-20T17:06:44.844Z,7.29
2019-02-20T17:09:10.596Z,7.31
2019-02-20T17:11:36.385Z,7.30
2019-02-20T17:14:02.130Z,7.32
2019-02-20T17:16:27.904Z,7.34
2019-02-20T17:18:54.063Z,7.33
2019-02-20T17:21:19.833Z,7.33
2019-02-20T17:23:45.576Z,7.30
2019-02-20T17:26:11.342Z,7.30
2019-02-20T17:28:37.091Z,7.31
2019-02-20T17:31:02.872Z,7.30
2019-02-20T17:33:28.618Z,7.33
2019-02-20T17:35:54.377Z,7.32
2019-02-20T17:38:20.131Z,7.30
2019-02-20T17:40:46.295Z,7.27
2019-02-20T17:43:12.060Z,7.27
2019-02-20T17:45:37.824Z,7.28
2019-02-20T17:48:03.581Z,7.29
2019-02-20T17:50:29.361Z,7.27
2019-02-20T17:52:55.136Z,7.27
2019-02-20T17:55:20.896Z,7.26
2019-02-20T17:57:46.650Z,7.24
2019-02-20T18:00:14.198Z,7.25
2019-02-20T18:02:40.080Z,7.24
2019-02-20T18:05:06.724Z,7.28
2019-02-20T18:07:32.513Z,7.27
2019-02-20T18:09:58.279Z,7.27
2019-02-20T18:12:24.036Z,7.32
2019-02-20T18:14:49.814Z,7.29
2019-02-20T18:17:15.583Z,7.40
2019-02-20T18:19:41.339Z,7.42
2019-02-20T18:22:07.109Z,7.41
2019-02-20T18:24:32.890Z,7.47
2019-02-20T18:26:58.664Z,7.46
2019-02-20T18:29:24.428Z,7.37
2019-02-20T18:31:50.185Z,7.36
2019-02-20T18:34:15.936Z,7.42
2019-02-20T18:36:41.701Z,7.42
2019-02-20T18:39:07.691Z,7.41
2019-02-20T18:41:33.451Z,7.41
2019-02-20T18:43:59.180Z,7.40
2019-02-20T18:46:24.940Z,7.45
2019-02-20T18:48:50.710Z,7.44
2019-02-20T18:51:16.503Z,7.41
2019-02-20T18:53:42.273Z,7.46
2019-02-20T18:56:08.050Z,7.45
2019-02-20T18:58:34.406Z,7.55
2019-02-20T19:01:00.212Z,7.59
2019-02-20T19:03:25.989Z,7.57
2019-02-20T19:05:51.758Z,7.45
2019-02-20T19:08:30.474Z,7.45
2019-02-20T19:11:07.555Z,7.50
2019-02-20T19:13:58.148Z,7.50
2019-02-20T19:16:47.407Z,7.49
2019-02-20T19:19:32.184Z,7.46
2019-02-20T19:22:21.511Z,7.51
2019-02-20T19:25:19.822Z,7.51
2019-02-20T19:27:58.178Z,7.52
2019-02-20T19:30:50.648Z,7.56
2019-02-20T19:33:32.116Z,7.55
2019-02-20T19:36:07.068Z,7.51
2019-02-20T19:38:54.809Z,7.49
2019-02-20T19:41:36.556Z,7.57
2019-02-20T19:44:18.043Z,7.53
2019-02-20T19:47:11.327Z,7.56
2019-02-20T19:49:46.559Z,7.52
2019-02-20T19:52:16.107Z,7.55
2019-02-20T19:54:45.712Z,7.55
2019-02-20T19:57:18.339Z,7.57
2019-02-20T20:00:02.831Z,7.60
2019-02-20T20:02:38.463Z,7.64
2019-02-20T20:05:23.007Z,7.63
2019-02-20T20:08:16.746Z,7.58
2019-02-20T20:11:10.482Z,7.58
2019-02-20T20:13:46.214Z,7.60
2019-02-20T20:16:21.495Z,7.61
2019-02-20T20:19:10.487Z,7.63
2019-02-20T20:21:54.776Z,7.63
2019-02-20T20:24:27.074Z,7.60
2019-02-20T20:26:56.607Z,7.60
2019-02-20T20:29:53.316Z,7.55
2019-02-20T20:32:22.847Z,7.60
2019-02-20T20:35:20.966Z,7.60
2019-02-20T20:38:10.237Z,7.52
2019-02-20T20:40:45.743Z,7.53
2019-02-20T20:43:34.514Z,7.50
2019-02-20T20:46:16.182Z,7.53
2019-02-20T20:48:54.605Z,7.51
2019-02-20T20:51:46.664Z,7.47
2019-02-20T20:54:21.805Z,7.50
2019-02-20T20:56:57.741Z,7.46
2019-02-20T20:59:25.583Z,7.49
2019-02-20T21:02:09.271Z,7.44
2019-02-20T21:04:50.623Z,7.46
2019-02-20T21:07:25.949Z,7.44
2019-02-20T21:09:58.022Z,7.49
2019-02-20T21:12:39.144Z,7.47
2019-02-20T21:15:20.380Z,7.42
2019-02-20T21:17:59.051Z,7.48
2019-02-20T21:20:49.645Z,7.49
2019-02-20T21:23:41.216Z,7.42
2019-02-20T21:26:19.942Z,7.45
2019-02-20T21:28:58.412Z,7.45
2019-02-20T21:31:30.519Z,7.49
2019-02-20T21:34:03.236Z,7.49
2019-02-20T21:36:38.649Z,7.47
2019-02-20T21:39:22.654Z,7.45
2019-02-20T21:42:10.256Z,7.46
2019-02-20T21:44:51.946Z,7.44
2019-02-20T21:47:36.702Z,7.49
2019-02-20T21:50:12.033Z,7.44
2019-02-20T21:53:01.067Z,7.44
2019-02-20T21:55:51.858Z,7.43
2019-02-20T21:58:39.555Z,7.42
2019-02-20T22:01:21.165Z,7.47
2019-02-20T22:04:21.017Z,7.51
2019-02-20T22:07:02.229Z,7.52
2019-02-20T22:09:34.333Z,7.49
2019-02-20T22:12:12.284Z,7.50
2019-02-20T22:14:50.936Z,7.52
2019-02-20T22:17:23.286Z,7.50
2019-02-20T22:19:58.437Z,7.47
2019-02-20T22:22:36.401Z,7.44
2019-02-20T22:25:15.049Z,7.46
2019-02-20T22:28:02.786Z,7.51
2019-02-20T22:30:32.368Z,7.53
2019-02-20T22:33:04.506Z,7.48
2019-02-20T22:35:53.470Z,7.57
2019-02-20T22:38:40.750Z,7.49
2019-02-20T22:41:25.496Z,7.51
2019-02-20T22:44:20.533Z,7.51
2019-02-20T22:47:08.246Z,7.47
2019-02-20T22:49:40.553Z,7.46
2019-02-20T22:52:16.273Z,7.48
2019-02-20T22:55:12.286Z,7.49
2019-02-20T22:57:44.897Z,7.47
2019-02-20T23:00:42.212Z,7.42
2019-02-20T23:03:35.668Z,7.42
2019-02-20T23:06:35.078Z,7.41
2019-02-20T23:09:10.262Z,7.42
2019-02-20T23:11:50.758Z,7.40
2019-02-20T23:14:19.942Z,7.42
2019-02-20T23:16:45.749Z,7.43
2019-02-20T23:19:11.491Z,7.41
2019-02-20T23:21:37.263Z,7.39
2019-02-20T23:24:03.032Z,7.37
2019-02-20T23:26:28.786Z,7.35
2019-02-20T23:28:54.654Z,7.35
2019-02-20T23:31:20.405Z,7.32
2019-02-20T23:33:46.176Z,7.30
2019-02-20T23:36:11.948Z,7.29
2019-02-20T23:38:37.724Z,7.29
2019-02-20T23:41:03.474Z,7.34
2019-02-20T23:43:29.248Z,7.33
2019-02-20T23:45:55.002Z,7.30
2019-02-20T23:48:20.777Z,7.33
2019-02-20T23:50:46.551Z,7.29
2019-02-20T23:53:12.316Z,7.28
2019-02-20T23:55:38.088Z,7.29
2019-02-20T23:58:03.942Z,7.28
